sensor_id;sensor_type;location;lat;lon;timestamp;P1;durP1;ratioP1;P2;durP2;ratioP2
56435;SDS011;42335;44.872;20.658;2023-03-04T00:00:57;160.10;;;53.25;;
56435;SDS011;42335;44.872;20.658;2023-03-04T00:03:23;169.43;;;53.55;;
56435;SDS011;42335;44.872;20.658;2023-03-04T00:05:49;160.85;;;53.05;;
56435;SDS011;42335;44.872;20.658;2023-03-04T00:08:14;148.82;;;51.80;;
56435;SDS011;42335;44.872;20.658;2023-03-04T00:10:40;149.13;;;50.92;;
56435;SDS011;42335;44.872;20.658;2023-03-04T00:13:06;159.18;;;54.63;;
56435;SDS011;42335;44.872;20.658;2023-03-04T00:15:31;160.68;;;51.65;;
56435;SDS011;42335;44.872;20.658;2023-03-04T00:17:57;164.52;;;51.20;;
56435;SDS011;42335;44.872;20.658;2023-03-04T00:20:23;161.35;;;52.83;;
56435;SDS011;42335;44.872;20.658;2023-03-04T00:22:48;167.90;;;52.33;;
56435;SDS011;42335;44.872;20.658;2023-03-04T00:25:15;158.25;;;50.15;;
56435;SDS011;42335;44.872;20.658;2023-03-04T00:27:41;162.43;;;50.05;;
56435;SDS011;42335;44.872;20.658;2023-03-04T00:30:07;155.90;;;52.63;;
56435;SDS011;42335;44.872;20.658;2023-03-04T00:32:33;154.43;;;53.30;;
56435;SDS011;42335;44.872;20.658;2023-03-04T00:34:59;145.48;;;50.55;;
56435;SDS011;42335;44.872;20.658;2023-03-04T00:37:25;159.48;;;53.92;;
56435;SDS011;42335;44.872;20.658;2023-03-04T00:39:50;157.07;;;50.13;;
56435;SDS011;42335;44.872;20.658;2023-03-04T00:42:16;158.63;;;51.08;;
56435;SDS011;42335;44.872;20.658;2023-03-04T00:44:42;146.60;;;51.17;;
56435;SDS011;42335;44.872;20.658;2023-03-04T00:47:07;167.98;;;49.95;;
56435;SDS011;42335;44.872;20.658;2023-03-04T00:49:33;153.25;;;50.35;;
56435;SDS011;42335;44.872;20.658;2023-03-04T00:51:59;152.98;;;48.78;;
56435;SDS011;42335;44.872;20.658;2023-03-04T00:54:24;152.85;;;51.42;;
56435;SDS011;42335;44.872;20.658;2023-03-04T00:56:50;133.90;;;48.97;;
56435;SDS011;42335;44.872;20.658;2023-03-04T00:59:16;154.10;;;53.03;;
56435;SDS011;42335;44.872;20.658;2023-03-04T01:01:42;149.27;;;51.30;;
56435;SDS011;42335;44.872;20.658;2023-03-04T01:04:08;156.52;;;50.55;;
56435;SDS011;42335;44.872;20.658;2023-03-04T01:06:34;149.68;;;50.33;;
56435;SDS011;42335;44.872;20.658;2023-03-04T01:08:59;140.90;;;49.35;;
56435;SDS011;42335;44.872;20.658;2023-03-04T01:11:26;153.88;;;54.75;;
56435;SDS011;42335;44.872;20.658;2023-03-04T01:13:51;159.68;;;51.75;;
56435;SDS011;42335;44.872;20.658;2023-03-04T01:16:17;159.77;;;50.95;;
56435;SDS011;42335;44.872;20.658;2023-03-04T01:18:43;142.48;;;49.75;;
56435;SDS011;42335;44.872;20.658;2023-03-04T01:21:09;150.63;;;50.10;;
56435;SDS011;42335;44.872;20.658;2023-03-04T01:23:34;146.18;;;51.08;;
56435;SDS011;42335;44.872;20.658;2023-03-04T01:26:00;147.55;;;53.45;;
56435;SDS011;42335;44.872;20.658;2023-03-04T01:28:27;140.82;;;49.53;;
56435;SDS011;42335;44.872;20.658;2023-03-04T01:30:52;150.50;;;53.03;;
56435;SDS011;42335;44.872;20.658;2023-03-04T01:33:18;140.88;;;50.92;;
56435;SDS011;42335;44.872;20.658;2023-03-04T01:35:44;145.48;;;49.42;;
56435;SDS011;42335;44.872;20.658;2023-03-04T01:38:09;136.32;;;50.55;;
56435;SDS011;42335;44.872;20.658;2023-03-04T01:40:37;137.10;;;46.03;;
56435;SDS011;42335;44.872;20.658;2023-03-04T01:43:03;135.13;;;46.28;;
56435;SDS011;42335;44.872;20.658;2023-03-04T01:45:29;153.20;;;51.25;;
56435;SDS011;42335;44.872;20.658;2023-03-04T01:47:56;150.23;;;47.97;;
56435;SDS011;42335;44.872;20.658;2023-03-04T01:50:32;147.35;;;48.72;;
56435;SDS011;42335;44.872;20.658;2023-03-04T01:53:00;134.48;;;47.20;;
56435;SDS011;42335;44.872;20.658;2023-03-04T01:55:26;136.88;;;46.80;;
56435;SDS011;42335;44.872;20.658;2023-03-04T01:57:53;135.15;;;46.55;;
56435;SDS011;42335;44.872;20.658;2023-03-04T02:02:49;130.20;;;47.45;;
56435;SDS011;42335;44.872;20.658;2023-03-04T02:05:20;133.60;;;45.10;;
56435;SDS011;42335;44.872;20.658;2023-03-04T02:07:47;139.95;;;45.92;;
56435;SDS011;42335;44.872;20.658;2023-03-04T02:10:14;144.93;;;46.58;;
56435;SDS011;42335;44.872;20.658;2023-03-04T02:12:40;144.77;;;47.70;;
56435;SDS011;42335;44.872;20.658;2023-03-04T02:15:06;140.52;;;47.53;;
56435;SDS011;42335;44.872;20.658;2023-03-04T02:17:32;143.68;;;45.90;;
56435;SDS011;42335;44.872;20.658;2023-03-04T02:22:33;139.45;;;48.42;;
56435;SDS011;42335;44.872;20.658;2023-03-04T02:27:35;138.00;;;46.95;;
56435;SDS011;42335;44.872;20.658;2023-03-04T02:30:01;140.63;;;45.60;;
56435;SDS011;42335;44.872;20.658;2023-03-04T02:32:27;136.32;;;45.50;;
56435;SDS011;42335;44.872;20.658;2023-03-04T02:34:53;132.00;;;47.78;;
56435;SDS011;42335;44.872;20.658;2023-03-04T02:37:20;135.68;;;46.03;;
56435;SDS011;42335;44.872;20.658;2023-03-04T02:39:46;134.77;;;46.05;;
56435;SDS011;42335;44.872;20.658;2023-03-04T02:42:13;127.32;;;48.17;;
56435;SDS011;42335;44.872;20.658;2023-03-04T02:44:43;138.25;;;46.33;;
56435;SDS011;42335;44.872;20.658;2023-03-04T02:47:13;126.60;;;45.72;;
56435;SDS011;42335;44.872;20.658;2023-03-04T02:49:41;139.77;;;48.10;;
56435;SDS011;42335;44.872;20.658;2023-03-04T02:52:08;126.05;;;45.30;;
56435;SDS011;42335;44.872;20.658;2023-03-04T02:54:41;126.30;;;44.22;;
56435;SDS011;42335;44.872;20.658;2023-03-04T02:57:07;122.10;;;44.13;;
56435;SDS011;42335;44.872;20.658;2023-03-04T02:59:36;131.68;;;45.15;;
56435;SDS011;42335;44.872;20.658;2023-03-04T03:02:02;142.20;;;46.22;;
56435;SDS011;42335;44.872;20.658;2023-03-04T03:04:29;137.23;;;47.25;;
56435;SDS011;42335;44.872;20.658;2023-03-04T03:06:55;149.68;;;49.63;;
56435;SDS011;42335;44.872;20.658;2023-03-04T03:09:20;134.80;;;46.30;;
56435;SDS011;42335;44.872;20.658;2023-03-04T03:11:46;130.63;;;45.33;;
56435;SDS011;42335;44.872;20.658;2023-03-04T03:14:12;138.20;;;43.97;;
56435;SDS011;42335;44.872;20.658;2023-03-04T03:16:38;136.80;;;47.13;;
56435;SDS011;42335;44.872;20.658;2023-03-04T03:19:03;132.75;;;47.15;;
56435;SDS011;42335;44.872;20.658;2023-03-04T03:21:29;133.50;;;47.33;;
56435;SDS011;42335;44.872;20.658;2023-03-04T03:23:55;138.73;;;47.42;;
56435;SDS011;42335;44.872;20.658;2023-03-04T03:26:21;151.52;;;46.10;;
56435;SDS011;42335;44.872;20.658;2023-03-04T03:28:49;132.52;;;46.53;;
56435;SDS011;42335;44.872;20.658;2023-03-04T03:31:15;133.38;;;49.08;;
56435;SDS011;42335;44.872;20.658;2023-03-04T03:33:41;142.55;;;48.90;;
56435;SDS011;42335;44.872;20.658;2023-03-04T03:36:07;140.48;;;49.83;;
56435;SDS011;42335;44.872;20.658;2023-03-04T03:38:33;135.48;;;48.90;;
56435;SDS011;42335;44.872;20.658;2023-03-04T03:40:59;135.68;;;48.30;;
56435;SDS011;42335;44.872;20.658;2023-03-04T03:43:24;134.45;;;48.55;;
56435;SDS011;42335;44.872;20.658;2023-03-04T03:45:50;141.93;;;45.35;;
56435;SDS011;42335;44.872;20.658;2023-03-04T03:48:16;138.05;;;50.78;;
56435;SDS011;42335;44.872;20.658;2023-03-04T03:50:42;141.02;;;49.35;;
56435;SDS011;42335;44.872;20.658;2023-03-04T03:53:09;142.52;;;49.10;;
56435;SDS011;42335;44.872;20.658;2023-03-04T03:55:35;139.05;;;48.30;;
56435;SDS011;42335;44.872;20.658;2023-03-04T03:58:00;136.95;;;47.75;;
56435;SDS011;42335;44.872;20.658;2023-03-04T04:00:26;128.25;;;47.03;;
56435;SDS011;42335;44.872;20.658;2023-03-04T04:02:53;122.60;;;45.28;;
56435;SDS011;42335;44.872;20.658;2023-03-04T04:05:20;128.63;;;44.95;;
56435;SDS011;42335;44.872;20.658;2023-03-04T04:07:46;132.20;;;47.92;;
56435;SDS011;42335;44.872;20.658;2023-03-04T04:10:11;137.95;;;45.80;;
56435;SDS011;42335;44.872;20.658;2023-03-04T04:12:37;125.65;;;47.58;;
56435;SDS011;42335;44.872;20.658;2023-03-04T04:15:03;129.43;;;45.85;;
56435;SDS011;42335;44.872;20.658;2023-03-04T04:17:29;139.95;;;46.90;;
56435;SDS011;42335;44.872;20.658;2023-03-04T04:19:55;134.00;;;49.30;;
56435;SDS011;42335;44.872;20.658;2023-03-04T04:22:20;130.10;;;46.75;;
56435;SDS011;42335;44.872;20.658;2023-03-04T04:24:46;138.63;;;47.35;;
56435;SDS011;42335;44.872;20.658;2023-03-04T04:27:12;146.77;;;48.55;;
56435;SDS011;42335;44.872;20.658;2023-03-04T04:29:39;128.90;;;47.28;;
56435;SDS011;42335;44.872;20.658;2023-03-04T04:32:05;121.45;;;45.47;;
56435;SDS011;42335;44.872;20.658;2023-03-04T04:34:31;135.48;;;46.72;;
56435;SDS011;42335;44.872;20.658;2023-03-04T04:36:57;129.57;;;46.65;;
56435;SDS011;42335;44.872;20.658;2023-03-04T04:39:24;124.03;;;46.70;;
56435;SDS011;42335;44.872;20.658;2023-03-04T04:41:51;138.75;;;46.35;;
56435;SDS011;42335;44.872;20.658;2023-03-04T04:44:16;113.07;;;42.67;;
56435;SDS011;42335;44.872;20.658;2023-03-04T04:46:42;119.28;;;44.90;;
56435;SDS011;42335;44.872;20.658;2023-03-04T04:49:08;106.07;;;42.22;;
56435;SDS011;42335;44.872;20.658;2023-03-04T04:51:34;107.55;;;42.58;;
56435;SDS011;42335;44.872;20.658;2023-03-04T04:54:01;105.88;;;43.22;;
56435;SDS011;42335;44.872;20.658;2023-03-04T04:56:27;108.93;;;41.67;;
56435;SDS011;42335;44.872;20.658;2023-03-04T04:58:55;108.03;;;39.80;;
56435;SDS011;42335;44.872;20.658;2023-03-04T05:01:22;119.05;;;43.95;;
56435;SDS011;42335;44.872;20.658;2023-03-04T05:03:48;118.22;;;42.17;;
56435;SDS011;42335;44.872;20.658;2023-03-04T05:06:17;118.90;;;43.13;;
56435;SDS011;42335;44.872;20.658;2023-03-04T05:08:43;121.22;;;43.97;;
56435;SDS011;42335;44.872;20.658;2023-03-04T05:11:09;214.32;;;101.13;;
56435;SDS011;42335;44.872;20.658;2023-03-04T05:13:35;217.52;;;113.60;;
56435;SDS011;42335;44.872;20.658;2023-03-04T05:16:01;130.52;;;46.80;;
56435;SDS011;42335;44.872;20.658;2023-03-04T05:18:27;110.38;;;44.10;;
56435;SDS011;42335;44.872;20.658;2023-03-04T05:20:56;120.70;;;42.22;;
56435;SDS011;42335;44.872;20.658;2023-03-04T05:23:25;144.40;;;48.28;;
56435;SDS011;42335;44.872;20.658;2023-03-04T05:25:52;128.35;;;46.60;;
56435;SDS011;42335;44.872;20.658;2023-03-04T05:28:19;135.55;;;45.38;;
56435;SDS011;42335;44.872;20.658;2023-03-04T05:30:44;130.68;;;47.17;;
56435;SDS011;42335;44.872;20.658;2023-03-04T05:33:11;139.82;;;48.38;;
56435;SDS011;42335;44.872;20.658;2023-03-04T05:35:38;127.57;;;45.42;;
56435;SDS011;42335;44.872;20.658;2023-03-04T05:38:05;120.00;;;44.67;;
56435;SDS011;42335;44.872;20.658;2023-03-04T05:40:33;134.65;;;54.45;;
56435;SDS011;42335;44.872;20.658;2023-03-04T05:42:59;544.53;;;283.27;;
56435;SDS011;42335;44.872;20.658;2023-03-04T05:45:25;166.15;;;73.50;;
56435;SDS011;42335;44.872;20.658;2023-03-04T05:47:52;146.18;;;56.60;;
56435;SDS011;42335;44.872;20.658;2023-03-04T05:50:20;116.10;;;46.28;;
56435;SDS011;42335;44.872;20.658;2023-03-04T05:52:46;118.47;;;44.55;;
56435;SDS011;42335;44.872;20.658;2023-03-04T05:55:13;123.47;;;47.42;;
56435;SDS011;42335;44.872;20.658;2023-03-04T05:57:39;136.27;;;47.58;;
56435;SDS011;42335;44.872;20.658;2023-03-04T06:00:05;133.30;;;48.80;;
56435;SDS011;42335;44.872;20.658;2023-03-04T06:02:35;126.70;;;45.58;;
56435;SDS011;42335;44.872;20.658;2023-03-04T06:05:01;131.30;;;46.78;;
56435;SDS011;42335;44.872;20.658;2023-03-04T06:07:28;125.97;;;48.50;;
56435;SDS011;42335;44.872;20.658;2023-03-04T06:09:55;127.93;;;48.08;;
56435;SDS011;42335;44.872;20.658;2023-03-04T06:12:21;120.32;;;47.80;;
56435;SDS011;42335;44.872;20.658;2023-03-04T06:14:47;126.68;;;47.03;;
56435;SDS011;42335;44.872;20.658;2023-03-04T06:17:13;136.00;;;49.00;;
56435;SDS011;42335;44.872;20.658;2023-03-04T06:19:39;127.28;;;47.80;;
56435;SDS011;42335;44.872;20.658;2023-03-04T06:22:06;141.73;;;49.08;;
56435;SDS011;42335;44.872;20.658;2023-03-04T06:24:32;146.60;;;50.50;;
56435;SDS011;42335;44.872;20.658;2023-03-04T06:26:58;133.75;;;48.05;;
56435;SDS011;42335;44.872;20.658;2023-03-04T06:29:23;139.57;;;51.22;;
56435;SDS011;42335;44.872;20.658;2023-03-04T06:31:49;140.32;;;49.05;;
56435;SDS011;42335;44.872;20.658;2023-03-04T06:34:15;129.57;;;47.75;;
56435;SDS011;42335;44.872;20.658;2023-03-04T06:36:41;141.95;;;50.28;;
56435;SDS011;42335;44.872;20.658;2023-03-04T06:39:07;126.38;;;47.47;;
56435;SDS011;42335;44.872;20.658;2023-03-04T06:41:33;138.48;;;48.78;;
56435;SDS011;42335;44.872;20.658;2023-03-04T06:43:59;123.60;;;46.40;;
56435;SDS011;42335;44.872;20.658;2023-03-04T06:46:25;126.38;;;47.35;;
56435;SDS011;42335;44.872;20.658;2023-03-04T06:48:51;118.80;;;46.20;;
56435;SDS011;42335;44.872;20.658;2023-03-04T06:51:17;121.38;;;47.25;;
56435;SDS011;42335;44.872;20.658;2023-03-04T06:53:43;114.45;;;45.35;;
56435;SDS011;42335;44.872;20.658;2023-03-04T06:56:10;103.72;;;44.40;;
56435;SDS011;42335;44.872;20.658;2023-03-04T06:58:42;191.02;;;96.00;;
56435;SDS011;42335;44.872;20.658;2023-03-04T07:03:48;102.68;;;45.70;;
56435;SDS011;42335;44.872;20.658;2023-03-04T07:06:17;99.03;;;45.17;;
56435;SDS011;42335;44.872;20.658;2023-03-04T07:08:44;103.57;;;44.03;;
56435;SDS011;42335;44.872;20.658;2023-03-04T07:11:12;96.57;;;43.05;;
56435;SDS011;42335;44.872;20.658;2023-03-04T07:13:38;106.85;;;45.08;;
56435;SDS011;42335;44.872;20.658;2023-03-04T07:16:05;92.50;;;43.28;;
56435;SDS011;42335;44.872;20.658;2023-03-04T07:18:35;101.28;;;47.47;;
56435;SDS011;42335;44.872;20.658;2023-03-04T07:21:02;96.30;;;43.92;;
56435;SDS011;42335;44.872;20.658;2023-03-04T07:23:28;84.28;;;39.92;;
56435;SDS011;42335;44.872;20.658;2023-03-04T07:25:54;89.35;;;39.92;;
56435;SDS011;42335;44.872;20.658;2023-03-04T07:28:19;87.32;;;40.13;;
56435;SDS011;42335;44.872;20.658;2023-03-04T07:30:45;80.30;;;40.95;;
56435;SDS011;42335;44.872;20.658;2023-03-04T07:33:11;81.10;;;39.60;;
56435;SDS011;42335;44.872;20.658;2023-03-04T07:35:38;80.00;;;39.75;;
56435;SDS011;42335;44.872;20.658;2023-03-04T07:38:04;81.35;;;39.30;;
56435;SDS011;42335;44.872;20.658;2023-03-04T07:40:29;146.82;;;80.68;;
56435;SDS011;42335;44.872;20.658;2023-03-04T07:42:55;114.05;;;61.28;;
56435;SDS011;42335;44.872;20.658;2023-03-04T07:45:21;83.47;;;39.42;;
56435;SDS011;42335;44.872;20.658;2023-03-04T07:47:48;82.22;;;39.17;;
56435;SDS011;42335;44.872;20.658;2023-03-04T07:50:14;83.78;;;38.40;;
56435;SDS011;42335;44.872;20.658;2023-03-04T07:52:42;80.78;;;39.08;;
56435;SDS011;42335;44.872;20.658;2023-03-04T07:55:09;81.53;;;39.05;;
56435;SDS011;42335;44.872;20.658;2023-03-04T07:57:38;83.95;;;38.97;;
56435;SDS011;42335;44.872;20.658;2023-03-04T08:00:04;85.20;;;41.13;;
56435;SDS011;42335;44.872;20.658;2023-03-04T08:02:31;79.93;;;41.15;;
56435;SDS011;42335;44.872;20.658;2023-03-04T08:04:57;84.15;;;40.80;;
56435;SDS011;42335;44.872;20.658;2023-03-04T08:07:22;77.03;;;39.55;;
56435;SDS011;42335;44.872;20.658;2023-03-04T08:09:48;85.85;;;43.08;;
56435;SDS011;42335;44.872;20.658;2023-03-04T08:12:14;80.45;;;40.15;;
56435;SDS011;42335;44.872;20.658;2023-03-04T08:14:40;85.88;;;39.78;;
56435;SDS011;42335;44.872;20.658;2023-03-04T08:17:06;77.70;;;38.55;;
56435;SDS011;42335;44.872;20.658;2023-03-04T08:19:32;74.63;;;38.03;;
56435;SDS011;42335;44.872;20.658;2023-03-04T08:21:58;77.97;;;38.90;;
56435;SDS011;42335;44.872;20.658;2023-03-04T08:24:23;80.65;;;39.83;;
56435;SDS011;42335;44.872;20.658;2023-03-04T08:26:49;77.55;;;38.95;;
56435;SDS011;42335;44.872;20.658;2023-03-04T08:29:16;72.45;;;36.30;;
56435;SDS011;42335;44.872;20.658;2023-03-04T08:31:45;72.63;;;37.10;;
56435;SDS011;42335;44.872;20.658;2023-03-04T08:34:12;73.88;;;35.75;;
56435;SDS011;42335;44.872;20.658;2023-03-04T08:36:40;76.88;;;38.35;;
56435;SDS011;42335;44.872;20.658;2023-03-04T08:39:10;146.85;;;79.57;;
56435;SDS011;42335;44.872;20.658;2023-03-04T08:41:37;83.57;;;42.85;;
56435;SDS011;42335;44.872;20.658;2023-03-04T08:44:03;72.03;;;35.40;;
56435;SDS011;42335;44.872;20.658;2023-03-04T08:46:29;66.65;;;34.45;;
56435;SDS011;42335;44.872;20.658;2023-03-04T08:48:55;67.88;;;34.63;;
56435;SDS011;42335;44.872;20.658;2023-03-04T08:51:21;77.45;;;36.28;;
56435;SDS011;42335;44.872;20.658;2023-03-04T08:53:48;66.68;;;33.33;;
56435;SDS011;42335;44.872;20.658;2023-03-04T08:56:14;63.63;;;34.92;;
56435;SDS011;42335;44.872;20.658;2023-03-04T08:58:40;69.25;;;36.72;;
56435;SDS011;42335;44.872;20.658;2023-03-04T09:01:10;66.00;;;38.05;;
56435;SDS011;42335;44.872;20.658;2023-03-04T09:03:36;74.03;;;37.10;;
56435;SDS011;42335;44.872;20.658;2023-03-04T09:06:03;74.60;;;36.95;;
56435;SDS011;42335;44.872;20.658;2023-03-04T09:08:29;75.55;;;38.40;;
56435;SDS011;42335;44.872;20.658;2023-03-04T09:10:56;83.70;;;39.88;;
56435;SDS011;42335;44.872;20.658;2023-03-04T09:13:22;76.45;;;40.35;;
56435;SDS011;42335;44.872;20.658;2023-03-04T09:15:50;87.32;;;40.20;;
56435;SDS011;42335;44.872;20.658;2023-03-04T09:18:16;82.88;;;43.10;;
56435;SDS011;42335;44.872;20.658;2023-03-04T09:20:43;84.55;;;41.63;;
56435;SDS011;42335;44.872;20.658;2023-03-04T09:23:09;88.70;;;44.88;;
56435;SDS011;42335;44.872;20.658;2023-03-04T09:25:36;80.32;;;43.40;;
56435;SDS011;42335;44.872;20.658;2023-03-04T09:28:02;99.47;;;53.25;;
56435;SDS011;42335;44.872;20.658;2023-03-04T09:30:28;81.38;;;42.80;;
56435;SDS011;42335;44.872;20.658;2023-03-04T09:32:54;85.22;;;41.42;;
56435;SDS011;42335;44.872;20.658;2023-03-04T09:35:21;78.75;;;40.15;;
56435;SDS011;42335;44.872;20.658;2023-03-04T09:37:47;85.45;;;39.45;;
56435;SDS011;42335;44.872;20.658;2023-03-04T09:40:18;75.82;;;39.55;;
56435;SDS011;42335;44.872;20.658;2023-03-04T09:42:46;84.20;;;38.85;;
56435;SDS011;42335;44.872;20.658;2023-03-04T09:45:17;73.68;;;39.75;;
56435;SDS011;42335;44.872;20.658;2023-03-04T09:47:45;72.57;;;37.28;;
56435;SDS011;42335;44.872;20.658;2023-03-04T09:50:11;64.68;;;38.22;;
56435;SDS011;42335;44.872;20.658;2023-03-04T10:00:25;62.45;;;37.38;;
56435;SDS011;42335;44.872;20.658;2023-03-04T10:05:21;57.78;;;35.22;;
56435;SDS011;42335;44.872;20.658;2023-03-04T10:07:54;62.30;;;35.35;;
56435;SDS011;42335;44.872;20.658;2023-03-04T10:10:23;60.95;;;36.55;;
56435;SDS011;42335;44.872;20.658;2023-03-04T10:12:51;66.43;;;35.03;;
56435;SDS011;42335;44.872;20.658;2023-03-04T10:17:55;66.22;;;35.58;;
56435;SDS011;42335;44.872;20.658;2023-03-04T10:20:25;57.55;;;33.53;;
56435;SDS011;42335;44.872;20.658;2023-03-04T10:22:58;50.28;;;31.48;;
56435;SDS011;42335;44.872;20.658;2023-03-04T10:25:26;67.57;;;35.38;;
56435;SDS011;42335;44.872;20.658;2023-03-04T10:28:11;52.83;;;31.13;;
56435;SDS011;42335;44.872;20.658;2023-03-04T10:33:13;53.72;;;30.30;;
56435;SDS011;42335;44.872;20.658;2023-03-04T10:35:39;55.05;;;28.67;;
56435;SDS011;42335;44.872;20.658;2023-03-04T10:38:07;45.67;;;28.90;;
56435;SDS011;42335;44.872;20.658;2023-03-04T10:40:38;53.15;;;29.92;;
56435;SDS011;42335;44.872;20.658;2023-03-04T10:43:05;50.63;;;28.75;;
56435;SDS011;42335;44.872;20.658;2023-03-04T10:45:37;50.35;;;29.33;;
56435;SDS011;42335;44.872;20.658;2023-03-04T10:48:04;64.50;;;38.40;;
56435;SDS011;42335;44.872;20.658;2023-03-04T10:50:31;62.42;;;37.90;;
56435;SDS011;42335;44.872;20.658;2023-03-04T10:52:57;47.10;;;30.05;;
56435;SDS011;42335;44.872;20.658;2023-03-04T10:57:53;46.25;;;29.50;;
56435;SDS011;42335;44.872;20.658;2023-03-04T11:05:50;47.38;;;28.75;;
56435;SDS011;42335;44.872;20.658;2023-03-04T11:08:27;51.53;;;31.48;;
56435;SDS011;42335;44.872;20.658;2023-03-04T11:10:53;45.97;;;28.15;;
56435;SDS011;42335;44.872;20.658;2023-03-04T11:13:20;49.80;;;29.10;;
56435;SDS011;42335;44.872;20.658;2023-03-04T11:15:53;39.35;;;28.25;;
56435;SDS011;42335;44.872;20.658;2023-03-04T11:18:27;46.80;;;27.80;;
56435;SDS011;42335;44.872;20.658;2023-03-04T11:21:13;40.97;;;25.50;;
56435;SDS011;42335;44.872;20.658;2023-03-04T11:24:01;40.00;;;26.63;;
56435;SDS011;42335;44.872;20.658;2023-03-04T11:31:33;45.35;;;25.23;;
56435;SDS011;42335;44.872;20.658;2023-03-04T11:34:19;40.17;;;25.80;;
56435;SDS011;42335;44.872;20.658;2023-03-04T11:36:51;42.70;;;28.67;;
56435;SDS011;42335;44.872;20.658;2023-03-04T11:39:38;46.97;;;28.83;;
56435;SDS011;42335;44.872;20.658;2023-03-04T11:44:40;48.30;;;27.77;;
56435;SDS011;42335;44.872;20.658;2023-03-04T11:52:50;44.25;;;25.92;;
56435;SDS011;42335;44.872;20.658;2023-03-04T12:08:32;52.08;;;31.02;;
56435;SDS011;42335;44.872;20.658;2023-03-04T12:21:19;55.17;;;30.60;;
56435;SDS011;42335;44.872;20.658;2023-03-04T12:26:38;55.03;;;31.42;;
56435;SDS011;42335;44.872;20.658;2023-03-04T12:34:49;45.60;;;28.08;;
56435;SDS011;42335;44.872;20.658;2023-03-04T12:42:37;44.28;;;29.25;;
56435;SDS011;42335;44.872;20.658;2023-03-04T12:47:51;54.22;;;35.90;;
56435;SDS011;42335;44.872;20.658;2023-03-04T12:56:26;39.58;;;24.42;;
56435;SDS011;42335;44.872;20.658;2023-03-04T12:58:53;37.97;;;24.02;;
56435;SDS011;42335;44.872;20.658;2023-03-04T13:04:01;44.97;;;24.70;;
56435;SDS011;42335;44.872;20.658;2023-03-04T13:11:45;43.72;;;25.10;;
56435;SDS011;42335;44.872;20.658;2023-03-04T13:16:44;49.65;;;23.95;;
56435;SDS011;42335;44.872;20.658;2023-03-04T13:35:55;42.53;;;21.52;;
56435;SDS011;42335;44.872;20.658;2023-03-04T13:43:37;39.28;;;21.85;;
56435;SDS011;42335;44.872;20.658;2023-03-04T13:51:18;37.80;;;22.83;;
56435;SDS011;42335;44.872;20.658;2023-03-04T13:58:44;41.17;;;21.10;;
56435;SDS011;42335;44.872;20.658;2023-03-04T14:01:27;36.65;;;20.17;;
56435;SDS011;42335;44.872;20.658;2023-03-04T14:03:55;45.00;;;23.65;;
56435;SDS011;42335;44.872;20.658;2023-03-04T14:08:48;38.40;;;22.27;;
56435;SDS011;42335;44.872;20.658;2023-03-04T14:11:26;36.58;;;21.77;;
56435;SDS011;42335;44.872;20.658;2023-03-04T14:13:52;46.47;;;21.85;;
56435;SDS011;42335;44.872;20.658;2023-03-04T14:16:22;55.38;;;34.47;;
56435;SDS011;42335;44.872;20.658;2023-03-04T14:18:57;55.95;;;40.65;;
56435;SDS011;42335;44.872;20.658;2023-03-04T14:21:23;52.88;;;35.97;;
56435;SDS011;42335;44.872;20.658;2023-03-04T14:23:59;41.90;;;26.40;;
56435;SDS011;42335;44.872;20.658;2023-03-04T14:26:26;38.08;;;20.88;;
56435;SDS011;42335;44.872;20.658;2023-03-04T14:28:54;39.40;;;20.17;;
56435;SDS011;42335;44.872;20.658;2023-03-04T14:31:23;39.20;;;20.35;;
56435;SDS011;42335;44.872;20.658;2023-03-04T14:33:56;34.45;;;20.52;;
56435;SDS011;42335;44.872;20.658;2023-03-04T14:36:27;67.25;;;41.65;;
56435;SDS011;42335;44.872;20.658;2023-03-04T14:38:56;53.35;;;29.40;;
56435;SDS011;42335;44.872;20.658;2023-03-04T14:41:38;39.78;;;22.92;;
56435;SDS011;42335;44.872;20.658;2023-03-04T14:46:49;36.60;;;22.65;;
56435;SDS011;42335;44.872;20.658;2023-03-04T14:49:18;49.78;;;26.17;;
56435;SDS011;42335;44.872;20.658;2023-03-04T14:51:46;44.88;;;22.15;;
56435;SDS011;42335;44.872;20.658;2023-03-04T14:56:57;64.25;;;36.65;;
56435;SDS011;42335;44.872;20.658;2023-03-04T14:59:30;73.47;;;40.65;;
56435;SDS011;42335;44.872;20.658;2023-03-04T15:05:01;54.42;;;29.65;;
56435;SDS011;42335;44.872;20.658;2023-03-04T15:07:39;46.72;;;24.90;;
56435;SDS011;42335;44.872;20.658;2023-03-04T15:10:07;37.20;;;22.45;;
56435;SDS011;42335;44.872;20.658;2023-03-04T15:12:38;44.13;;;21.63;;
56435;SDS011;42335;44.872;20.658;2023-03-04T15:15:29;39.05;;;21.75;;
56435;SDS011;42335;44.872;20.658;2023-03-04T15:17:59;44.92;;;23.02;;
56435;SDS011;42335;44.872;20.658;2023-03-04T15:20:28;38.80;;;22.45;;
56435;SDS011;42335;44.872;20.658;2023-03-04T15:22:57;54.40;;;24.75;;
56435;SDS011;42335;44.872;20.658;2023-03-04T15:25:25;55.58;;;29.88;;
56435;SDS011;42335;44.872;20.658;2023-03-04T15:27:52;46.47;;;24.42;;
56435;SDS011;42335;44.872;20.658;2023-03-04T15:30:22;43.97;;;23.90;;
56435;SDS011;42335;44.872;20.658;2023-03-04T15:32:52;42.58;;;24.52;;
56435;SDS011;42335;44.872;20.658;2023-03-04T15:35:19;58.53;;;26.25;;
56435;SDS011;42335;44.872;20.658;2023-03-04T15:37:45;43.72;;;24.05;;
56435;SDS011;42335;44.872;20.658;2023-03-04T15:40:26;38.97;;;22.58;;
56435;SDS011;42335;44.872;20.658;2023-03-04T15:42:55;48.60;;;25.55;;
56435;SDS011;42335;44.872;20.658;2023-03-04T15:45:37;47.97;;;24.65;;
56435;SDS011;42335;44.872;20.658;2023-03-04T15:48:14;47.33;;;23.10;;
56435;SDS011;42335;44.872;20.658;2023-03-04T15:50:42;43.03;;;24.98;;
56435;SDS011;42335;44.872;20.658;2023-03-04T15:53:35;51.05;;;25.05;;
56435;SDS011;42335;44.872;20.658;2023-03-04T15:58:31;39.65;;;22.92;;
56435;SDS011;42335;44.872;20.658;2023-03-04T16:00:57;44.80;;;23.27;;
56435;SDS011;42335;44.872;20.658;2023-03-04T16:03:23;52.05;;;24.85;;
56435;SDS011;42335;44.872;20.658;2023-03-04T16:05:49;47.83;;;24.63;;
56435;SDS011;42335;44.872;20.658;2023-03-04T16:08:18;48.45;;;25.73;;
56435;SDS011;42335;44.872;20.658;2023-03-04T16:10:45;47.83;;;24.60;;
56435;SDS011;42335;44.872;20.658;2023-03-04T16:13:13;56.67;;;25.75;;
56435;SDS011;42335;44.872;20.658;2023-03-04T16:15:40;44.13;;;23.27;;
56435;SDS011;42335;44.872;20.658;2023-03-04T16:18:10;46.58;;;23.23;;
56435;SDS011;42335;44.872;20.658;2023-03-04T16:20:37;44.72;;;25.25;;
56435;SDS011;42335;44.872;20.658;2023-03-04T16:23:04;46.08;;;24.08;;
56435;SDS011;42335;44.872;20.658;2023-03-04T16:25:33;259.75;;;168.15;;
56435;SDS011;42335;44.872;20.658;2023-03-04T16:27:59;71.50;;;35.50;;
56435;SDS011;42335;44.872;20.658;2023-03-04T16:30:27;47.05;;;25.20;;
56435;SDS011;42335;44.872;20.658;2023-03-04T16:32:54;50.50;;;25.88;;
56435;SDS011;42335;44.872;20.658;2023-03-04T16:35:20;68.85;;;33.50;;